Latest Weather Observations for Point Stuart

IDD60801

Issued at 12:35 am CST Friday 25 July 2014 (issued every 30 minutes, with the page automatically refreshed every 10 minutes)

About weather observations | Map of weather stations | Latest weather observations for NT | Other Formats
Station Details ID: 014254 Name: POINT STUART Lat: -12.24 Lon: 131.88 Height: 1.0 m
Data from the previous 72 hours. | See also: Recent months for locations in Northern Territory
Date/Time
CST
Temp
°C
App
Temp
°C
Dew
Point
Rel
Hum
%
Delta-T
°C
Wind Press
QNH
hPa
Press
MSL
hPa
Rain
since 9 am
mm
Dir
 
Spd
km/h
Gust
km/h
Spd
kts
Gust
kts
24/11:30pm 20.0 22.3 19.8 99 0.1 SSW 7 9 4 5 1014.4 - 0.0
24/11:00pm 19.7 22.1 19.7 100 0.0 NW 6 20 3 11 1014.3 - 0.0
24/10:30pm 20.2 23.9 20.0 99 0.1 CALM 0 6 0 3 1014.0 - 0.0
24/10:00pm 20.1 22.6 19.8 98 0.2 NNE 6 7 3 4 1013.9 - 0.0
24/09:30pm 20.6 23.9 19.9 96 0.4 NNE 2 7 1 4 1013.6 - 0.0
24/09:00pm 21.0 24.6 19.8 93 0.8 CALM 0 0 0 0 1013.4 1013.4 0.0
24/08:30pm 21.8 25.4 19.7 88 1.3 CALM 0 0 0 0 1013.1 - 0.0
24/08:00pm 22.5 25.8 20.8 90 1.1 NNW 4 7 2 4 1012.6 - 0.0
24/07:30pm 22.7 24.9 19.5 82 2.0 N 7 9 4 5 1012.1 - 0.0
24/07:00pm 23.5 25.1 19.2 77 2.7 NW 9 11 5 6 1011.8 - 0.0
24/06:30pm 24.8 26.1 19.2 71 3.6 NW 11 15 6 8 1011.6 - 0.0
24/06:00pm 26.2 26.6 19.1 65 4.6 NW 15 19 8 10 1011.5 1011.5 0.0
24/05:30pm 27.4 28.1 19.7 63 5.0 NW 15 20 8 11 1011.1 - 0.0
24/05:00pm 28.2 28.3 19.1 57 5.9 NW 17 20 9 11 1011.0 - 0.0
24/04:30pm 28.4 28.6 19.3 57 5.9 NNW 17 24 9 13 1010.8 - 0.0
24/04:00pm 29.0 29.6 18.7 53 6.6 NNW 13 24 7 13 1010.8 - 0.0
24/03:30pm 28.4 28.8 18.2 54 6.5 N 13 22 7 12 1010.8 - 0.0
24/03:00pm 29.7 30.4 18.8 52 7.0 N 13 22 7 12 1011.0 1011.0 0.0
24/02:30pm 29.6 29.7 17.4 47 7.7 N 13 22 7 12 1011.5 - 0.0
24/02:00pm 30.1 30.1 18.2 49 7.6 N 15 22 8 12 1012.0 - 0.0
24/01:30pm 30.2 30.5 18.0 48 7.8 NE 13 24 7 13 1012.6 - 0.0
24/01:00pm 30.1 29.7 17.2 46 8.2 ENE 15 22 8 12 1013.2 - 0.0
24/12:30pm 28.9 29.3 18.1 52 6.9 ENE 13 19 7 10 1013.8 - 0.0
24/12:00pm 28.0 27.9 17.8 54 6.5 ENE 15 22 8 12 1014.4 1014.4 0.0
24/11:30am 28.6 29.0 19.8 59 5.7 ENE 17 24 9 13 1014.7 - 0.0
24/11:00am 26.7 26.5 19.3 64 4.8 E 19 24 10 13 1015.0 - 0.0
24/10:30am 25.8 25.4 19.0 66 4.4 E 19 24 10 13 1015.1 - 0.0
24/10:00am 24.9 24.6 19.5 72 3.5 E 20 28 11 15 1015.2 - 0.0
24/09:30am 24.4 24.3 19.5 74 3.1 E 19 24 10 13 1015.2 - 0.0
24/09:00am 23.6 25.8 20.5 83 2.0 E 9 13 5 7 1015.2 1015.2 0.0
24/08:30am 21.6 24.3 20.6 94 0.6 SE 7 9 4 5 1015.0 - 0.0
24/08:00am 20.0 22.3 19.8 99 0.1 S 7 11 4 6 1014.7 - 0.0
24/07:30am 19.0 21.4 18.8 99 0.1 SSE 4 9 2 5 1014.3 - 0.0
24/07:00am 18.8 20.2 18.6 99 0.1 SE 9 11 5 6 1014.0 - 0.0
24/06:30am 19.0 20.4 18.7 98 0.2 SSE 9 11 5 6 1013.7 - 0.0
24/06:00am 19.0 20.0 18.7 98 0.2 SSE 11 15 6 8 1013.4 1013.4 0.0
24/05:30am 18.9 19.5 18.7 99 0.1 ESE 13 17 7 9 1013.3 - 0.0
24/05:00am 18.7 19.7 18.7 100 0.0 S 11 11 6 6 1012.8 - 0.0
24/04:30am 18.5 19.4 18.5 100 0.0 S 11 13 6 7 1012.7 - 0.0
24/04:00am 18.6 19.6 18.6 100 0.0 S 11 13 6 7 1012.9 - 0.0
24/03:30am 18.4 19.3 18.4 100 0.0 S 11 13 6 7 1013.0 - 0.0
24/03:00am 18.6 19.6 18.6 100 0.0 S 11 13 6 7 1013.1 1013.1 0.0
24/02:30am 18.4 19.0 17.6 95 0.5 SW 11 15 6 8 1013.3 - 0.0
24/02:00am 19.9 23.0 18.7 93 0.7 CALM 0 0 0 0 1013.1 - 0.0
24/01:30am 21.5 23.1 19.2 87 1.5 NNE 9 11 5 6 1013.1 - 0.0
24/01:00am 22.5 24.8 19.9 85 1.7 NNE 7 13 4 7 1013.2 - 0.0
24/12:30am 22.9 25.0 20.1 84 1.8 NNE 9 13 5 7 1013.3 - 0.0
24/12:00am 23.2 24.8 20.0 82 2.1 NNE 11 13 6 7 1013.3 1013.3 0.0
 
Date/Time
CST
Temp
°C
App
Temp
°C
Dew
Point
Rel
Hum
%
Delta-T
°C
Wind Press
QNH
hPa
Press
MSL
hPa
Rain
since 9 am
mm
Dir
 
Spd
km/h
Gust
km/h
Spd
kts
Gust
kts
23/11:30pm 23.4 24.9 19.8 80 2.3 NNE 11 15 6 8 1013.3 - 0.0
23/11:00pm 23.8 24.5 18.9 74 3.1 NNE 13 19 7 10 1013.2 - 0.0
23/10:30pm 23.8 24.9 18.9 74 3.1 NNE 11 19 6 10 1013.2 - 0.0
23/10:00pm 22.6 24.8 21.2 92 0.9 NNE 11 17 6 9 1013.0 - 0.0
23/09:30pm 19.6 22.7 19.6 100 0.0 NNE 2 6 1 3 1012.9 - 0.0
23/09:00pm 18.7 19.8 17.2 91 0.9 NNE 7 11 4 6 1012.7 1012.7 0.0
23/08:30pm 19.3 21.9 17.4 89 1.2 CALM 0 0 0 0 1012.4 - 0.0
23/08:00pm 20.5 23.3 18.8 90 1.1 NW 2 7 1 4 1012.2 - 0.0
23/07:30pm 21.2 23.6 18.0 82 2.0 NW 2 7 1 4 1012.0 - 0.0
23/07:00pm 22.3 23.5 16.8 71 3.4 WNW 6 7 3 4 1011.7 - 0.0
23/06:30pm 24.0 24.9 16.5 63 4.6 NW 7 9 4 5 1011.4 - 0.0
23/06:00pm 26.2 27.1 16.7 56 5.9 NNW 7 11 4 6 1011.2 1011.2 0.0
23/05:30pm 27.1 28.0 16.7 53 6.5 N 7 13 4 7 1011.0 - 0.0
23/05:00pm 27.9 28.2 17.1 51 6.8 N 11 17 6 9 1010.8 - 0.0
23/04:30pm 27.6 27.7 17.5 54 6.4 N 13 20 7 11 1010.6 - 0.0
23/04:00pm 27.5 27.1 16.1 49 7.0 N 13 20 7 11 1010.7 - 0.0
23/03:30pm 28.5 28.0 15.8 46 7.8 N 13 22 7 12 1010.7 - 0.0
23/03:00pm 28.4 28.0 16.3 47 7.5 N 13 22 7 12 1011.0 1011.0 0.0
23/02:30pm 28.2 27.2 16.5 49 7.3 NNE 17 22 9 12 1011.4 - 0.0
23/02:00pm 28.3 27.0 13.8 41 8.6 ENE 13 19 7 10 1011.7 - 0.0
23/01:30pm 28.6 27.8 16.2 47 7.7 NNE 15 20 8 11 1012.3 - 0.0
23/01:00pm 28.3 26.9 15.6 46 7.8 NE 17 24 9 13 1012.8 - 0.0
23/12:30pm 28.2 27.2 15.5 46 7.8 ENE 15 20 8 11 1013.4 - 0.0
23/12:00pm 27.4 26.3 15.4 48 7.3 ENE 15 20 8 11 1014.1 1014.1 0.0
23/11:30am 27.0 25.2 15.4 49 7.1 ENE 19 26 10 14 1014.6 - 0.0
23/11:00am 25.6 22.9 14.7 51 6.5 E 22 28 12 15 1015.0 - 0.0
23/10:30am 25.7 23.2 15.1 52 6.4 ESE 22 30 12 16 1015.3 - 0.0
23/10:00am 25.1 23.1 15.4 55 5.9 ESE 20 26 11 14 1015.6 - 0.0
23/09:30am 23.9 22.3 15.9 61 4.8 E 19 24 10 13 1015.7 - 0.0
23/09:00am 22.3 21.0 15.9 67 3.8 ESE 17 20 9 11 1015.6 1015.6 0.0
23/08:30am 20.6 20.8 17.6 83 1.8 SE 13 17 7 9 1015.3 - 0.0
23/08:00am 19.1 20.4 18.4 96 0.4 SSE 9 17 5 9 1015.3 - 0.0
23/07:30am 18.4 18.9 18.4 100 0.0 SE 13 17 7 9 1015.0 - 0.0
23/07:00am 18.4 18.9 18.4 100 0.0 ESE 13 19 7 10 1014.7 - 0.0
23/06:30am 18.3 19.2 18.3 100 0.0 SE 11 13 6 7 1014.3 - 0.0
23/06:00am 18.4 19.7 18.4 100 0.0 ESE 9 11 5 6 1014.1 1014.1 0.0
23/05:30am 18.4 20.1 18.4 100 0.0 SE 7 7 4 4 1014.0 - 0.0
23/05:00am 18.5 20.2 18.5 100 0.0 ESE 7 9 4 5 1013.7 - 0.0
23/04:30am 19.0 20.9 19.0 100 0.0 SE 7 9 4 5 1013.5 - 0.0
23/04:00am 19.0 20.8 18.8 99 0.1 SE 7 9 4 5 1013.3 - 0.0
23/03:30am 19.0 20.9 17.7 92 0.8 S 4 6 2 3 1013.2 - 0.0
23/03:00am 20.1 21.3 18.2 89 1.2 S 9 11 5 6 1013.2 1013.2 0.0
23/02:30am 22.5 24.2 20.2 87 1.5 E 11 15 6 8 1013.4 - 0.0
23/02:00am 22.3 24.1 19.5 84 1.8 E 9 15 5 8 1013.7 - 0.0
23/01:30am 23.4 24.6 20.0 81 2.2 ENE 13 20 7 11 1014.0 - 0.0
23/01:00am 23.3 23.9 19.5 79 2.4 NE 15 24 8 13 1014.1 - 0.0
23/12:30am 23.6 23.7 19.1 76 2.9 NE 17 22 9 12 1014.3 - 0.0
23/12:00am 23.9 23.7 18.5 72 3.4 NE 17 26 9 14 1014.4 1014.4 0.0
 
Date/Time
CST
Temp
°C
App
Temp
°C
Dew
Point
Rel
Hum
%
Delta-T
°C
Wind Press
QNH
hPa
Press
MSL
hPa
Rain
since 9 am
mm
Dir
 
Spd
km/h
Gust
km/h
Spd
kts
Gust
kts
22/11:30pm 23.8 23.5 18.2 71 3.5 NE 17 24 9 13 1014.3 - 0.0
22/11:00pm 23.7 23.9 18.6 73 3.2 NNE 15 24 8 13 1014.3 - 0.0
22/10:30pm 23.8 24.4 18.7 73 3.2 NNE 13 19 7 10 1014.2 - 0.0
22/10:00pm 23.9 24.1 18.5 72 3.4 NNE 15 24 8 13 1014.0 - 0.0
22/09:30pm 24.0 24.1 18.4 71 3.5 NNE 15 22 8 12 1013.8 - 0.0
22/09:00pm 24.1 23.7 18.1 69 3.8 NE 17 26 9 14 1013.7 1013.7 0.0
22/08:30pm 24.3 25.1 19.8 76 2.9 NNE 15 26 8 14 1013.4 - 0.0
22/08:00pm 24.5 24.8 19.6 74 3.2 NNE 17 26 9 14 1013.1 - 0.0
22/07:30pm 24.6 25.1 19.2 72 3.5 NNE 15 24 8 13 1012.7 - 0.0
22/07:00pm 25.0 24.3 16.4 59 5.3 NNE 15 24 8 13 1012.4 - 0.0
22/06:30pm 25.0 24.5 15.0 53 6.0 NNE 11 17 6 9 1011.8 - 0.0
22/06:00pm 25.9 26.5 15.9 54 6.1 N 7 17 4 9 1011.8 1011.8 0.0
22/05:30pm 26.9 27.3 15.3 49 7.0 NNW 7 13 4 7 1011.6 - 0.0
22/05:00pm 26.8 26.7 14.9 48 7.2 NNW 9 13 5 7 1011.4 - 0.0
22/04:30pm 28.5 28.5 14.3 41 8.5 NNW 7 13 4 7 1011.4 - 0.0
22/04:00pm 28.8 28.2 14.6 42 8.6 N 11 17 6 9 1011.5 - 0.0
22/03:30pm 28.7 28.1 15.6 45 8.0 NNE 13 19 7 10 1011.5 - 0.0
22/03:00pm 29.2 28.4 15.0 42 8.7 N 13 24 7 13 1011.7 1011.7 0.0
22/02:30pm 29.7 26.2 10.3 30 11.0 NE 19 24 10 13 1012.0 - 0.0
22/02:00pm 29.1 26.3 12.5 36 9.7 NE 19 26 10 14 1012.4 - 0.0
22/01:30pm 30.6 26.2 8.9 26 12.1 E 22 32 12 17 1013.1 - 0.0
22/01:00pm 30.0 25.9 10.0 29 11.3 E 22 32 12 17 1013.8 - 0.0
22/12:30pm 28.3 23.4 10.0 32 10.3 E 26 33 14 18 1014.5 - 0.0
22/12:00pm 28.1 23.1 10.8 34 9.8 E 28 37 15 20 1015.0 1015.0 0.0
22/11:30am 28.1 24.9 14.3 42 8.3 E 24 35 13 19 1015.5 - 0.0
22/11:00am 27.1 25.3 15.5 49 7.1 E 19 22 10 12 1016.0 - 0.0
22/10:30am 24.8 23.1 15.7 57 5.5 E 19 28 10 15 1016.6 - 0.0
22/10:00am 24.2 22.9 16.7 63 4.6 E 19 24 10 13 1016.9 - 0.0
22/09:30am 24.0 22.8 17.0 65 4.3 E 19 26 10 14 1017.0 - 0.0
22/09:00am 22.4 22.3 16.9 71 3.4 E 13 15 7 8 1016.9 1016.9 0.0
22/08:30am 20.4 22.0 18.3 88 1.3 SE 7 9 4 5 1016.8 - 0.0
22/08:00am 18.5 21.5 18.5 100 0.0 CALM 0 0 0 0 1016.4 - 0.0
22/07:30am 17.3 19.8 17.3 100 0.0 CALM 0 0 0 0 1016.0 - 0.0
22/07:00am 17.4 18.8 17.4 100 0.0 ESE 6 7 3 4 1015.7 - 0.0
22/06:30am 17.4 19.6 17.4 100 0.0 SE 2 7 1 4 1015.5 - 0.0
22/06:00am 17.2 19.6 17.0 99 0.1 CALM 0 0 0 0 1015.0 1015.0 0.0
22/05:30am 17.6 20.0 17.0 96 0.4 CALM 0 0 0 0 1014.6 - 0.0
22/05:00am 18.7 20.5 18.2 97 0.3 ESE 6 7 3 4 1014.4 - 0.0
22/04:30am 19.0 20.6 18.3 96 0.4 SE 7 9 4 5 1014.3 - 0.0
22/04:00am 19.2 20.5 18.5 96 0.4 ESE 9 11 5 6 1014.4 - 0.0
22/03:30am 19.2 20.6 18.7 97 0.3 SE 9 11 5 6 1014.5 - 0.0
22/03:00am 19.8 21.3 18.8 94 0.6 ESE 9 9 5 5 1014.7 1014.7 0.0
22/02:30am 20.9 21.6 17.9 83 1.9 SE 11 19 6 10 1014.7 - 0.0
22/02:00am 23.0 23.9 20.1 84 1.9 E 15 19 8 10 1014.7 - 0.0
22/01:30am 23.1 24.4 20.2 84 1.9 E 13 20 7 11 1014.7 - 0.0
22/01:00am 23.2 23.9 19.6 80 2.3 ENE 15 19 8 10 1014.8 - 0.0

Other Formats:

Comma delimited format used in spreadsheet applications
http://www.bom.gov.au/fwo/IDD60801/IDD60801.94127.axf

JavaScript Object Notation format (JSON) in row-major order
http://www.bom.gov.au/fwo/IDD60801/IDD60801.94127.json